Time;durP1;ratioP1;P1;durP2;ratioP2;P2;SDS_P1;SDS_P2;PMS_P1;PMS_P2;Temp;Humidity;BMP_temperature;BMP_pressure;BME280_temperature;BME280_humidity;BME280_pressure;Samples;Min_cycle;Max_cycle;Signal;HPM_P1;HPM_P2
2021/08/30 00:01:31;;;;;;;0.40;0.20;;;14.10;99.90;;;;;;5030109;28;20379;-71
2021/08/30 00:03:56;;;;;;;0.40;0.20;;;14.10;99.90;;;;;;5029952;28;20471;-71
2021/08/30 00:06:22;;;;;;;0.40;0.20;;;14.10;99.90;;;;;;5029920;28;20867;-71
2021/08/30 00:08:48;;;;;;;0.40;0.20;;;14.10;99.90;;;;;;5028440;28;20433;-71
2021/08/30 00:11:13;;;;;;;0.40;0.20;;;14.00;99.90;;;;;;5030341;28;20827;-71
2021/08/30 00:13:39;;;;;;;0.40;0.20;;;14.00;99.90;;;;;;5034033;28;20404;-71
2021/08/30 00:16:05;;;;;;;0.40;0.20;;;14.00;99.90;;;;;;5033047;28;20423;-71
2021/08/30 00:18:30;;;;;;;0.40;0.20;;;14.10;99.90;;;;;;5034518;28;20444;-71
2021/08/30 00:20:56;;;;;;;0.40;0.30;;;14.10;99.90;;;;;;5033369;28;20410;-71
2021/08/30 00:23:22;;;;;;;0.40;0.20;;;14.20;99.90;;;;;;5034413;28;20678;-71
2021/08/30 00:25:48;;;;;;;0.40;0.20;;;14.20;99.90;;;;;;5032371;28;20394;-71
2021/08/30 00:28:13;;;;;;;0.40;0.30;;;14.00;99.90;;;;;;5034332;28;20391;-71
2021/08/30 00:30:39;;;;;;;0.40;0.20;;;14.00;99.90;;;;;;5034131;28;20457;-71
2021/08/30 00:33:05;;;;;;;0.40;0.20;;;14.10;99.90;;;;;;5033322;28;20371;-71
2021/08/30 00:35:30;;;;;;;0.40;0.20;;;14.20;99.90;;;;;;5033735;28;20387;-71
2021/08/30 00:37:56;;;;;;;0.40;0.20;;;14.20;99.90;;;;;;5033067;28;20453;-72
2021/08/30 00:40:22;;;;;;;0.40;0.30;;;14.20;99.90;;;;;;5033667;28;20473;-71
2021/08/30 00:42:48;;;;;;;0.40;0.20;;;14.30;99.90;;;;;;5033130;28;20410;-71
2021/08/30 00:45:15;;;;;;;0.40;0.20;;;14.20;99.90;;;;;;5032313;28;20402;-71
2021/08/30 00:47:46;;;;;;;0.40;0.30;;;14.20;99.90;;;;;;5033750;28;20402;-71
2021/08/30 00:50:14;;;;;;;0.40;0.20;;;14.20;99.90;;;;;;5033503;28;20931;-71
2021/08/30 00:52:41;;;;;;;0.40;0.30;;;14.10;99.90;;;;;;5033597;28;20895;-71
2021/08/30 00:55:07;;;;;;;0.40;0.20;;;14.20;99.90;;;;;;5031192;28;20418;-71
2021/08/30 00:57:33;;;;;;;0.40;0.20;;;14.20;99.90;;;;;;5033484;28;20446;-71
2021/08/30 00:59:59;;;;;;;0.40;0.20;;;14.20;99.90;;;;;;5032246;28;20834;-71
2021/08/30 01:02:25;;;;;;;0.40;0.20;;;14.20;99.90;;;;;;5032934;28;20449;-71
2021/08/30 01:04:50;;;;;;;0.40;0.20;;;14.10;99.90;;;;;;5032686;28;20397;-72
2021/08/30 01:07:22;;;;;;;0.40;0.20;;;14.10;99.90;;;;;;5033337;28;20411;-72
2021/08/30 01:10:00;;;;;;;0.40;0.20;;;14.00;99.90;;;;;;5031400;28;20739;-72
2021/08/30 01:12:31;;;;;;;0.40;0.20;;;14.10;99.90;;;;;;5033622;28;20406;-71
2021/08/30 01:15:09;;;;;;;0.40;0.20;;;14.10;99.90;;;;;;5032290;28;20414;-71
2021/08/30 01:17:37;;;;;;;0.40;0.25;;;14.10;99.90;;;;;;5033280;28;20514;-71
2021/08/30 01:20:24;;;;;;;0.40;0.20;;;14.10;99.90;;;;;;5030592;28;20399;-71
2021/08/30 01:22:52;;;;;;;0.40;0.20;;;14.30;99.90;;;;;;5032155;28;20410;-71
2021/08/30 01:25:20;;;;;;;0.40;0.20;;;14.20;99.90;;;;;;5015073;28;20395;-71
2021/08/30 01:27:48;;;;;;;0.40;0.20;;;14.20;99.90;;;;;;5032630;28;20817;-72
2021/08/30 01:30:24;;;;;;;0.40;0.20;;;14.20;99.90;;;;;;5032412;28;20743;-71
2021/08/30 01:32:52;;;;;;;0.40;0.20;;;14.10;99.90;;;;;;5032245;28;20437;-71
2021/08/30 01:35:21;;;;;;;0.40;0.30;;;14.10;99.90;;;;;;5032097;28;20755;-71
2021/08/30 01:37:49;;;;;;;0.40;0.20;;;14.10;99.90;;;;;;5030814;28;20403;-72
2021/08/30 01:40:18;;;;;;;0.40;0.30;;;14.10;99.90;;;;;;5032676;28;20383;-71
2021/08/30 01:42:47;;;;;;;0.40;0.30;;;14.10;99.90;;;;;;5032242;28;20786;-71
2021/08/30 01:45:19;;;;;;;0.40;0.28;;;14.00;99.90;;;;;;5032511;28;20461;-71
2021/08/30 01:47:45;;;;;;;0.40;0.30;;;14.00;99.90;;;;;;5032837;28;20379;-71
2021/08/30 01:50:15;;;;;;;0.40;0.28;;;14.00;99.90;;;;;;5030259;28;20427;-72
2021/08/30 01:52:42;;;;;;;0.40;0.20;;;14.00;99.90;;;;;;5033064;28;20478;-72
2021/08/30 02:00:53;;;;;;;0.40;0.20;;;14.10;99.90;;;;;;5021843;28;20855;-71
2021/08/30 02:03:29;;;;;;;0.40;0.30;;;14.00;99.90;;;;;;5032544;28;20410;-71
2021/08/30 02:05:56;;;;;;;0.40;0.20;;;14.00;99.90;;;;;;5031512;28;20413;-71
2021/08/30 02:08:24;;;;;;;0.40;0.20;;;14.00;99.90;;;;;;5032080;28;20410;-71
2021/08/30 02:10:54;;;;;;;0.40;0.22;;;14.10;99.90;;;;;;5031774;28;20520;-72
2021/08/30 02:13:23;;;;;;;0.40;0.20;;;14.10;99.90;;;;;;5032009;28;20394;-71
2021/08/30 02:15:49;;;;;;;0.40;0.30;;;14.00;99.90;;;;;;5031541;28;20407;-72
2021/08/30 02:18:33;;;;;;;0.40;0.20;;;14.00;99.90;;;;;;5032015;28;20379;-71
2021/08/30 02:21:23;;;;;;;0.40;0.30;;;13.90;99.90;;;;;;5030053;28;20852;-71
2021/08/30 02:24:04;;;;;;;0.40;0.20;;;14.10;99.90;;;;;;5031964;28;20399;-72
2021/08/30 02:26:57;;;;;;;0.40;0.20;;;14.10;99.90;;;;;;5031609;28;20422;-71
2021/08/30 02:29:26;;;;;;;0.40;0.20;;;14.00;99.90;;;;;;5019611;28;20399;-71
2021/08/30 02:31:58;;;;;;;0.40;0.22;;;14.10;99.90;;;;;;5031089;28;20379;-73
2021/08/30 02:34:27;;;;;;;0.40;0.30;;;14.10;99.90;;;;;;5031179;28;20441;-71
2021/08/30 02:36:54;;;;;;;0.40;0.20;;;14.10;99.90;;;;;;5030738;28;20873;-73
2021/08/30 02:39:20;;;;;;;0.40;0.20;;;14.10;99.90;;;;;;5031063;28;20387;-71
2021/08/30 02:41:49;;;;;;;0.40;0.20;;;14.10;99.90;;;;;;5031684;28;20380;-71
2021/08/30 02:44:16;;;;;;;0.40;0.30;;;14.00;99.90;;;;;;5031114;28;20395;-71
2021/08/30 02:46:45;;;;;;;0.40;0.20;;;14.10;99.90;;;;;;5031606;28;20449;-71
2021/08/30 02:49:13;;;;;;;0.40;0.30;;;14.10;99.90;;;;;;5029182;28;20387;-72
2021/08/30 02:51:41;;;;;;;0.40;0.20;;;14.10;99.90;;;;;;5031221;28;20899;-72
2021/08/30 02:54:09;;;;;;;0.40;0.30;;;14.00;99.90;;;;;;5030276;28;20375;-72
2021/08/30 02:56:37;;;;;;;0.40;0.30;;;14.00;99.90;;;;;;5030505;28;20814;-72
2021/08/30 02:59:03;;;;;;;0.40;0.20;;;14.00;99.90;;;;;;5012349;28;20399;-72
2021/08/30 03:01:30;;;;;;;0.40;0.20;;;14.10;99.90;;;;;;5031147;28;20402;-72
2021/08/30 03:03:56;;;;;;;0.40;0.20;;;14.10;99.90;;;;;;5029995;28;20474;-72
2021/08/30 03:06:24;;;;;;;0.40;0.20;;;14.20;99.90;;;;;;5030970;28;20398;-72
2021/08/30 03:08:49;;;;;;;0.40;0.20;;;14.20;99.90;;;;;;5030529;28;20449;-72
2021/08/30 03:11:17;;;;;;;0.40;0.30;;;14.10;99.90;;;;;;5029887;28;20701;-72
2021/08/30 03:13:45;;;;;;;0.40;0.20;;;14.10;99.90;;;;;;5030076;28;20879;-72
2021/08/30 03:16:12;;;;;;;0.40;0.30;;;14.10;99.90;;;;;;5027591;28;20911;-73
2021/08/30 03:18:42;;;;;;;0.40;0.20;;;14.00;99.90;;;;;;5029404;28;20855;-72
2021/08/30 03:21:09;;;;;;;0.40;0.30;;;14.10;99.90;;;;;;5029857;28;20407;-72
2021/08/30 03:23:40;;;;;;;0.40;0.20;;;14.10;99.90;;;;;;5030797;28;20417;-72
2021/08/30 03:26:06;;;;;;;0.40;0.20;;;14.10;99.90;;;;;;5030014;28;20478;-73
2021/08/30 03:28:33;;;;;;;0.40;0.20;;;14.10;99.90;;;;;;5030784;28;20383;-72
2021/08/30 03:31:00;;;;;;;0.40;0.20;;;14.10;99.90;;;;;;5030193;28;20390;-73
2021/08/30 03:33:26;;;;;;;0.40;0.30;;;14.20;99.90;;;;;;5030865;28;20384;-72
2021/08/30 03:35:53;;;;;;;0.40;0.20;;;14.20;99.90;;;;;;5029982;28;20478;-73
2021/08/30 03:38:21;;;;;;;0.40;0.20;;;14.20;99.90;;;;;;5030304;28;20383;-72
2021/08/30 03:40:49;;;;;;;0.40;0.20;;;14.20;99.90;;;;;;5030794;28;20383;-72
2021/08/30 03:43:15;;;;;;;0.40;0.20;;;14.10;99.90;;;;;;5029621;28;20375;-72
2021/08/30 03:45:42;;;;;;;0.40;0.20;;;14.00;99.90;;;;;;5029978;28;20403;-73
2021/08/30 03:48:08;;;;;;;0.40;0.30;;;14.10;99.90;;;;;;5028609;28;20395;-72
2021/08/30 03:50:35;;;;;;;0.40;0.20;;;14.20;99.90;;;;;;5030798;28;20384;-72
2021/08/30 03:53:02;;;;;;;0.40;0.20;;;14.10;99.90;;;;;;5029425;28;20398;-72
2021/08/30 03:55:29;;;;;;;0.40;0.20;;;14.00;99.90;;;;;;5030456;28;20378;-72
2021/08/30 03:57:57;;;;;;;0.40;0.20;;;14.00;99.90;;;;;;5028902;28;20772;-73
2021/08/30 04:00:25;;;;;;;0.40;0.20;;;14.10;99.90;;;;;;5030411;28;20394;-72
2021/08/30 04:02:52;;;;;;;0.40;0.20;;;14.00;99.90;;;;;;5030851;28;20445;-72
2021/08/30 04:05:22;;;;;;;0.40;0.20;;;14.10;99.90;;;;;;5030040;28;20386;-72
2021/08/30 04:07:49;;;;;;;0.40;0.30;;;14.00;99.90;;;;;;5030702;28;20390;-73
2021/08/30 04:10:15;;;;;;;0.40;0.20;;;14.00;99.90;;;;;;5030028;28;20419;-72
2021/08/30 04:12:41;;;;;;;0.40;0.20;;;14.00;99.90;;;;;;5030420;28;20469;-72
2021/08/30 04:15:08;;;;;;;0.40;0.20;;;14.10;99.90;;;;;;5030407;28;20743;-72
2021/08/30 04:17:34;;;;;;;0.40;0.20;;;14.00;99.90;;;;;;5030607;28;20529;-72
2021/08/30 04:20:00;;;;;;;0.40;0.20;;;14.00;99.90;;;;;;5029487;28;20402;-73
2021/08/30 04:22:25;;;;;;;0.40;0.20;;;14.00;99.90;;;;;;5029154;28;20411;-72
2021/08/30 04:24:51;;;;;;;0.40;0.20;;;14.00;99.90;;;;;;5030696;28;20387;-72
2021/08/30 04:27:16;;;;;;;0.40;0.20;;;14.10;99.90;;;;;;5011962;28;21021;-72
2021/08/30 04:29:42;;;;;;;0.40;0.20;;;14.10;99.90;;;;;;5029337;28;20395;-72
2021/08/30 04:32:10;;;;;;;0.40;0.30;;;14.20;99.90;;;;;;5026237;28;20843;-72
2021/08/30 04:34:36;;;;;;;0.40;0.20;;;14.20;99.90;;;;;;5030311;28;20418;-72
2021/08/30 04:37:02;;;;;;;0.40;0.20;;;14.20;99.90;;;;;;5028598;28;20441;-73
2021/08/30 04:39:28;;;;;;;0.40;0.20;;;14.10;99.90;;;;;;5017570;28;20403;-72
2021/08/30 04:41:54;;;;;;;0.40;0.30;;;14.10;99.90;;;;;;5029037;28;20810;-72
2021/08/30 04:44:19;;;;;;;0.40;0.20;;;14.10;99.90;;;;;;5010872;28;20407;-72
2021/08/30 04:46:45;;;;;;;0.40;0.20;;;14.10;99.90;;;;;;5029701;28;20387;-72
2021/08/30 04:49:10;;;;;;;0.40;0.20;;;14.10;99.90;;;;;;5027253;28;20482;-72
2021/08/30 04:51:36;;;;;;;0.40;0.20;;;14.10;99.90;;;;;;5029573;28;20402;-72
2021/08/30 04:54:02;;;;;;;0.40;0.20;;;14.00;99.90;;;;;;5023144;28;20402;-74
2021/08/30 04:56:31;;;;;;;0.40;0.20;;;14.20;99.90;;;;;;5027776;28;20411;-72
2021/08/30 04:59:03;;;;;;;0.40;0.20;;;14.20;99.90;;;;;;5030128;28;20407;-72
2021/08/30 05:01:31;;;;;;;0.40;0.20;;;14.10;99.90;;;;;;5031897;28;20464;-73
2021/08/30 05:03:58;;;;;;;0.40;0.20;;;14.20;99.90;;;;;;5012781;28;20447;-73
2021/08/30 05:06:24;;;;;;;0.40;0.20;;;14.20;99.90;;;;;;5029344;28;20399;-72
2021/08/30 05:08:49;;;;;;;0.40;0.20;;;14.10;99.90;;;;;;5032105;28;20945;-72
2021/08/30 05:11:15;;;;;;;0.80;0.70;;;14.20;99.90;;;;;;5030428;28;20394;-72
2021/08/30 05:13:41;;;;;;;0.40;0.20;;;14.10;99.90;;;;;;5031440;28;20403;-72
2021/08/30 05:16:06;;;;;;;0.40;0.20;;;14.10;99.90;;;;;;5031268;28;20415;-72
2021/08/30 05:18:32;;;;;;;0.40;0.20;;;14.20;99.90;;;;;;5030507;28;20498;-72
2021/08/30 05:20:58;;;;;;;0.40;0.20;;;14.10;99.90;;;;;;5031831;28;20383;-72
2021/08/30 05:23:23;;;;;;;0.40;0.20;;;14.10;99.90;;;;;;5030782;28;20419;-72
2021/08/30 05:25:49;;;;;;;0.40;0.20;;;14.10;99.90;;;;;;5031462;28;20437;-72
2021/08/30 05:28:14;;;;;;;0.40;0.30;;;14.10;99.90;;;;;;5032049;28;20395;-72
2021/08/30 05:30:40;;;;;;;0.40;0.20;;;14.10;99.90;;;;;;5033081;28;20852;-72
2021/08/30 05:33:06;;;;;;;0.40;0.20;;;14.20;99.90;;;;;;5032035;28;20379;-72
2021/08/30 05:35:32;;;;;;;0.40;0.20;;;14.20;99.90;;;;;;5033382;28;20375;-72
2021/08/30 05:37:57;;;;;;;0.40;0.30;;;14.10;99.90;;;;;;5032540;28;20430;-72
2021/08/30 05:40:23;;;;;;;0.40;0.30;;;14.20;99.90;;;;;;5032153;28;20802;-72
2021/08/30 05:42:48;;;;;;;0.40;0.20;;;14.20;99.90;;;;;;5031946;28;20423;-71
2021/08/30 05:45:14;;;;;;;0.40;0.30;;;14.30;99.90;;;;;;5032457;28;20493;-72
2021/08/30 05:47:42;;;;;;;0.40;0.30;;;14.20;99.90;;;;;;5033331;28;20391;-72
2021/08/30 05:50:08;;;;;;;0.40;0.30;;;14.30;99.90;;;;;;5032165;28;20379;-73
2021/08/30 05:52:34;;;;;;;0.40;0.20;;;14.30;99.90;;;;;;5032356;28;20848;-73
2021/08/30 05:54:59;;;;;;;0.40;0.20;;;14.20;99.90;;;;;;5032982;28;20430;-73
2021/08/30 05:57:25;;;;;;;0.40;0.30;;;14.30;99.90;;;;;;5032019;28;20925;-73
2021/08/30 05:59:51;;;;;;;0.40;0.30;;;14.20;99.90;;;;;;5032569;28;20395;-73
2021/08/30 06:02:16;;;;;;;0.40;0.20;;;14.20;99.90;;;;;;5032320;28;20394;-73
2021/08/30 06:04:42;;;;;;;0.40;0.20;;;14.20;99.90;;;;;;5014449;28;20876;-72
2021/08/30 06:07:07;;;;;;;0.40;0.20;;;14.20;99.90;;;;;;5031372;28;20398;-73
2021/08/30 06:09:33;;;;;;;0.40;0.30;;;14.30;99.90;;;;;;5029902;28;20784;-73
2021/08/30 06:11:59;;;;;;;0.40;0.30;;;14.20;99.90;;;;;;5032240;28;20454;-72
2021/08/30 06:14:25;;;;;;;0.40;0.30;;;14.30;99.90;;;;;;5031706;28;21195;-72
2021/08/30 06:16:50;;;;;;;0.40;0.30;;;14.30;99.90;;;;;;5032048;28;20895;-74
2021/08/30 06:19:16;;;;;;;0.40;0.20;;;14.30;99.90;;;;;;5031517;28;20392;-74
2021/08/30 06:21:42;;;;;;;0.40;0.20;;;14.50;99.90;;;;;;5031932;28;20407;-74
2021/08/30 06:24:08;;;;;;;0.40;0.20;;;14.40;99.90;;;;;;5031605;28;20421;-75
2021/08/30 06:26:36;;;;;;;0.40;0.20;;;14.50;99.90;;;;;;5031972;28;20387;-74
2021/08/30 06:29:05;;;;;;;0.40;0.20;;;14.50;99.90;;;;;;5032378;28;20444;-74
2021/08/30 06:31:31;;;;;;;0.40;0.30;;;14.60;99.90;;;;;;5032441;28;20391;-74
2021/08/30 06:33:57;;;;;;;0.40;0.30;;;14.50;99.90;;;;;;5031968;28;20433;-74
2021/08/30 06:36:24;;;;;;;0.40;0.20;;;14.50;99.90;;;;;;5031235;28;21299;-75
2021/08/30 06:38:49;;;;;;;0.40;0.30;;;14.50;99.90;;;;;;5031923;28;20419;-74
2021/08/30 06:41:15;;;;;;;0.40;0.30;;;14.50;99.90;;;;;;5031316;28;20415;-75
2021/08/30 06:43:41;;;;;;;0.40;0.20;;;14.50;99.90;;;;;;5032162;28;20403;-74
2021/08/30 06:46:06;;;;;;;0.40;0.30;;;14.60;99.90;;;;;;5029719;28;20393;-75
2021/08/30 06:48:32;;;;;;;0.40;0.20;;;14.60;99.90;;;;;;5031113;28;20405;-74
2021/08/30 06:50:58;;;;;;;0.40;0.20;;;14.60;99.90;;;;;;5031850;28;20376;-74
2021/08/30 06:53:23;;;;;;;0.40;0.30;;;14.70;99.90;;;;;;5030804;28;20389;-74
2021/08/30 06:55:49;;;;;;;0.40;0.30;;;14.60;99.90;;;;;;5031620;28;20386;-74
2021/08/30 06:58:15;;;;;;;0.40;0.20;;;14.70;99.90;;;;;;5030927;28;20418;-74
2021/08/30 07:00:40;;;;;;;0.40;0.20;;;14.60;99.90;;;;;;5024539;28;20522;-74
2021/08/30 07:03:07;;;;;;;0.40;0.30;;;14.60;99.90;;;;;;5021358;28;20402;-74
2021/08/30 07:05:32;;;;;;;0.40;0.30;;;14.70;99.90;;;;;;5017756;28;20399;-74
2021/08/30 07:07:58;;;;;;;0.40;0.20;;;14.70;99.90;;;;;;5025577;28;20926;-75
2021/08/30 07:10:24;;;;;;;0.40;0.20;;;14.70;99.90;;;;;;5014237;28;20423;-75
2021/08/30 07:12:49;;;;;;;0.40;0.30;;;14.70;99.90;;;;;;5017615;28;20457;-75
2021/08/30 07:15:15;;;;;;;0.40;0.20;;;14.60;99.90;;;;;;5017174;28;21083;-75
2021/08/30 07:17:41;;;;;;;0.40;0.20;;;14.70;99.90;;;;;;5017697;28;20415;-75
2021/08/30 07:20:07;;;;;;;0.40;0.20;;;14.70;99.90;;;;;;5015758;28;20396;-76
2021/08/30 07:22:33;;;;;;;0.40;0.30;;;14.70;99.90;;;;;;5016268;28;20791;-75
2021/08/30 07:24:58;;;;;;;0.40;0.30;;;14.70;99.90;;;;;;5017775;28;20402;-74
2021/08/30 07:27:24;;;;;;;0.40;0.20;;;14.70;99.90;;;;;;5016341;28;20729;-78
2021/08/30 07:29:50;;;;;;;0.40;0.20;;;14.70;99.90;;;;;;5000328;28;20413;-76
2021/08/30 07:32:16;;;;;;;0.40;0.30;;;14.60;99.90;;;;;;5014582;28;20391;-75
2021/08/30 07:34:42;;;;;;;0.40;0.30;;;14.70;99.90;;;;;;5017524;28;20474;-75
2021/08/30 07:37:08;;;;;;;0.40;0.20;;;14.70;99.90;;;;;;5017678;28;20468;-77
2021/08/30 07:39:34;;;;;;;0.40;0.22;;;14.70;99.90;;;;;;5017062;28;20437;-75
2021/08/30 07:42:00;;;;;;;0.40;0.20;;;14.60;99.90;;;;;;5014957;28;21756;-77
2021/08/30 07:44:26;;;;;;;0.40;0.30;;;14.50;99.90;;;;;;5016345;28;20438;-76
2021/08/30 07:46:52;;;;;;;0.40;0.20;;;14.50;99.90;;;;;;5017491;28;21093;-76
2021/08/30 07:49:18;;;;;;;0.40;0.30;;;14.50;99.90;;;;;;5016466;28;20422;-75
2021/08/30 07:51:44;;;;;;;0.40;0.30;;;14.50;99.90;;;;;;5015662;28;20935;-76
2021/08/30 07:54:09;;;;;;;0.40;0.30;;;14.60;99.90;;;;;;5016816;28;20549;-75
2021/08/30 07:56:40;;;;;;;0.40;0.30;;;14.60;99.90;;;;;;5016633;28;20414;-75
2021/08/30 07:59:07;;;;;;;0.40;0.20;;;14.50;99.90;;;;;;5017077;28;20403;-77
2021/08/30 08:01:33;;;;;;;0.40;0.30;;;14.50;99.90;;;;;;5013615;28;20394;-76
2021/08/30 08:03:59;;;;;;;0.40;0.20;;;14.60;99.90;;;;;;5016689;28;20387;-75
2021/08/30 08:06:24;;;;;;;0.40;0.20;;;14.60;99.90;;;;;;5016458;28;20818;-76
2021/08/30 08:08:50;;;;;;;0.40;0.20;;;14.40;99.90;;;;;;5016858;28;20468;-75
2021/08/30 08:11:16;;;;;;;0.40;0.30;;;14.40;99.90;;;;;;5013838;28;21041;-75
2021/08/30 08:13:41;;;;;;;0.40;0.30;;;14.50;99.90;;;;;;4998524;28;20414;-76
2021/08/30 08:16:07;;;;;;;0.40;0.30;;;14.50;99.90;;;;;;5016274;28;21234;-75
2021/08/30 08:18:33;;;;;;;0.40;0.30;;;14.40;99.90;;;;;;5016022;28;20471;-75
2021/08/30 08:21:02;;;;;;;0.40;0.30;;;14.50;99.90;;;;;;5015381;28;20390;-74
2021/08/30 08:23:28;;;;;;;0.40;0.30;;;14.60;99.90;;;;;;5015444;28;20447;-75
2021/08/30 08:25:54;;;;;;;0.40;0.20;;;14.60;99.90;;;;;;5016693;28;20386;-75
2021/08/30 08:28:19;;;;;;;0.40;0.20;;;14.60;99.90;;;;;;5016497;28;20521;-75
2021/08/30 08:30:45;;;;;;;0.40;0.30;;;14.60;99.90;;;;;;5014066;28;20487;-75
2021/08/30 08:33:11;;;;;;;0.40;0.20;;;14.70;99.90;;;;;;5017971;28;20446;-75
2021/08/30 08:35:40;;;;;;;0.40;0.20;;;14.60;99.90;;;;;;5020074;28;21697;-76
2021/08/30 08:38:06;;;;;;;0.40;0.20;;;14.60;99.90;;;;;;5011419;28;20430;-75
2021/08/30 08:40:31;;;;;;;0.40;0.28;;;14.60;99.90;;;;;;5017702;28;20390;-77
2021/08/30 08:42:57;;;;;;;0.40;0.30;;;14.60;99.90;;;;;;5019155;28;20399;-76
2021/08/30 08:45:23;;;;;;;0.40;0.20;;;14.60;99.90;;;;;;5019108;28;21022;-78
2021/08/30 08:47:49;;;;;;;0.40;0.20;;;14.70;99.90;;;;;;5021935;28;20422;-77
2021/08/30 08:50:19;;;;;;;0.40;0.20;;;14.60;99.90;;;;;;5019824;28;20431;-75
2021/08/30 08:52:45;;;;;;;0.40;0.20;;;14.60;99.90;;;;;;5027431;28;20434;-76
2021/08/30 08:55:13;;;;;;;0.40;0.30;;;14.60;99.90;;;;;;5033825;28;20411;-76
2021/08/30 08:57:39;;;;;;;0.40;0.20;;;14.60;99.90;;;;;;5032112;28;20409;-76
2021/08/30 09:00:10;;;;;;;0.40;0.20;;;14.60;99.90;;;;;;5033018;28;20890;-76
2021/08/30 09:02:37;;;;;;;0.40;0.20;;;14.50;99.90;;;;;;5032682;28;20462;-76
2021/08/30 09:05:06;;;;;;;0.40;0.20;;;14.60;99.90;;;;;;5032885;28;20801;-76
2021/08/30 09:07:40;;;;;;;0.40;0.30;;;14.50;99.90;;;;;;5031415;28;20394;-78
2021/08/30 09:10:14;;;;;;;0.40;0.30;;;14.60;99.90;;;;;;5032292;28;20671;-75
2021/08/30 09:12:42;;;;;;;0.40;0.30;;;14.60;99.90;;;;;;5028892;28;20397;-77
2021/08/30 09:15:26;;;;;;;0.40;0.30;;;14.60;99.90;;;;;;5001527;28;20402;-76
2021/08/30 09:17:57;;;;;;;0.40;0.20;;;14.60;99.90;;;;;;5010179;28;20492;-76
2021/08/30 09:20:25;;;;;;;0.40;0.20;;;14.60;99.90;;;;;;5022775;28;20411;-75
2021/08/30 09:22:51;;;;;;;0.40;0.20;;;14.70;99.90;;;;;;5029090;28;20510;-78
2021/08/30 09:25:18;;;;;;;0.40;0.30;;;14.70;99.90;;;;;;5028500;28;20927;-77
2021/08/30 09:27:47;;;;;;;0.40;0.20;;;14.60;99.90;;;;;;5032157;28;20425;-77
2021/08/30 09:30:14;;;;;;;0.40;0.28;;;14.70;99.90;;;;;;5031497;28;20398;-78
2021/08/30 09:32:46;;;;;;;0.40;0.20;;;14.80;99.90;;;;;;5014246;28;20391;-79
2021/08/30 09:35:12;;;;;;;0.40;0.20;;;14.80;99.90;;;;;;5029968;28;20387;-78
2021/08/30 09:37:40;;;;;;;0.40;0.20;;;14.80;99.90;;;;;;5030696;28;20472;-77
2021/08/30 09:40:11;;;;;;;0.80;0.60;;;14.80;99.90;;;;;;5031741;28;20395;-72
2021/08/30 09:42:44;;;;;;;0.40;0.30;;;14.90;99.90;;;;;;5031170;28;20390;-72
2021/08/30 09:45:21;;;;;;;0.40;0.20;;;14.90;99.90;;;;;;5028793;28;20395;-72
2021/08/30 09:47:56;;;;;;;0.40;0.30;;;14.90;99.90;;;;;;5031977;28;20469;-71
2021/08/30 09:50:33;;;;;;;0.40;0.20;;;14.90;99.90;;;;;;5027089;28;20425;-72
2021/08/30 09:53:01;;;;;;;0.40;0.30;;;14.80;99.90;;;;;;5020272;28;20434;-74
2021/08/30 09:55:28;;;;;;;0.40;0.30;;;14.80;99.90;;;;;;5016021;28;20392;-73
2021/08/30 09:57:53;;;;;;;0.40;0.30;;;14.90;99.90;;;;;;5018713;28;20411;-73
2021/08/30 10:00:21;;;;;;;0.40;0.30;;;14.90;99.90;;;;;;5018278;28;20951;-72
2021/08/30 10:02:50;;;;;;;0.40;0.20;;;14.90;99.90;;;;;;5019876;28;20483;-72
2021/08/30 10:05:16;;;;;;;0.40;0.30;;;14.90;99.90;;;;;;5017276;28;20465;-73
2021/08/30 10:07:45;;;;;;;1.60;0.50;;;14.90;99.90;;;;;;5019176;28;20477;-73
2021/08/30 10:10:12;;;;;;;0.40;0.20;;;15.00;99.90;;;;;;5001549;28;20551;-74
2021/08/30 10:12:39;;;;;;;0.40;0.30;;;14.90;99.90;;;;;;5019015;28;20427;-73
2021/08/30 10:15:07;;;;;;;0.40;0.25;;;15.00;99.90;;;;;;5017216;28;20398;-74
2021/08/30 10:17:33;;;;;;;0.40;0.20;;;15.10;99.90;;;;;;5018277;28;20408;-72
2021/08/30 10:20:01;;;;;;;0.40;0.20;;;15.10;99.90;;;;;;5019430;28;20402;-72
2021/08/30 10:22:26;;;;;;;0.40;0.20;;;15.20;99.90;;;;;;5018165;28;20411;-73
2021/08/30 10:24:53;;;;;;;0.40;0.30;;;15.20;99.90;;;;;;5017189;28;20395;-72
2021/08/30 10:27:53;;;;;;;0.40;0.20;;;15.30;99.90;;;;;;5018371;28;20386;-74
2021/08/30 10:30:19;;;;;;;0.40;0.20;;;15.20;99.90;;;;;;5005682;28;20936;-77
2021/08/30 10:32:45;;;;;;;0.40;0.22;;;15.20;99.90;;;;;;5018221;28;20391;-77
2021/08/30 10:35:16;;;;;;;0.40;0.30;;;15.30;99.90;;;;;;5016804;28;21028;-78
2021/08/30 10:37:48;;;;;;;0.40;0.20;;;15.30;99.90;;;;;;5018143;28;20426;-77
2021/08/30 10:40:16;;;;;;;0.40;0.30;;;15.30;99.90;;;;;;5018271;28;20970;-77
2021/08/30 10:42:42;;;;;;;0.40;0.22;;;15.30;99.90;;;;;;5017792;28;20392;-78
2021/08/30 10:45:09;;;;;;;0.40;0.30;;;15.30;99.90;;;;;;5016520;28;20509;-77
2021/08/30 10:47:37;;;;;;;0.40;0.30;;;15.30;99.90;;;;;;5017855;28;20398;-76
2021/08/30 10:50:17;;;;;;;0.40;0.20;;;15.40;99.90;;;;;;5018481;28;20772;-76
2021/08/30 10:52:43;;;;;;;0.40;0.20;;;15.40;99.90;;;;;;5017884;28;20426;-76
2021/08/30 10:55:18;;;;;;;0.40;0.30;;;15.40;99.90;;;;;;5016878;28;20395;-78
2021/08/30 10:57:52;;;;;;;0.40;0.30;;;15.30;99.90;;;;;;5017807;28;20532;-78
2021/08/30 11:00:29;;;;;;;0.40;0.20;;;15.30;99.90;;;;;;5018655;28;20402;-78
2021/08/30 11:02:55;;;;;;;0.40;0.25;;;15.30;99.90;;;;;;5018090;28;21707;-78
2021/08/30 11:05:26;;;;;;;0.40;0.30;;;15.40;99.90;;;;;;5016301;28;20395;-78
2021/08/30 11:07:53;;;;;;;0.40;0.20;;;15.50;99.90;;;;;;5018543;28;20403;-78
2021/08/30 11:10:22;;;;;;;0.40;0.20;;;15.50;99.90;;;;;;5018683;28;20921;-78
2021/08/30 11:12:47;;;;;;;0.40;0.30;;;15.50;99.90;;;;;;5018285;28;20840;-78
2021/08/30 11:15:13;;;;;;;0.40;0.30;;;15.60;99.90;;;;;;5016047;28;20403;-78
2021/08/30 11:17:39;;;;;;;0.40;0.20;;;15.60;99.90;;;;;;5017702;28;20469;-78
2021/08/30 11:20:07;;;;;;;0.40;0.30;;;15.70;99.90;;;;;;5018148;28;20484;-78
2021/08/30 11:22:33;;;;;;;0.40;0.20;;;15.60;99.90;;;;;;5021955;28;20835;-78
2021/08/30 11:25:00;;;;;;;0.40;0.20;;;15.70;99.90;;;;;;5016358;28;20402;-78
2021/08/30 11:27:29;;;;;;;0.40;0.20;;;15.70;99.90;;;;;;5017752;28;20388;-78
2021/08/30 11:30:10;;;;;;;0.40;0.30;;;15.70;99.90;;;;;;5017731;28;20383;-78
2021/08/30 11:32:40;;;;;;;0.40;0.20;;;15.70;99.90;;;;;;5016251;28;20387;-78
2021/08/30 11:35:08;;;;;;;0.40;0.20;;;15.70;99.90;;;;;;5015250;28;20486;-78
2021/08/30 11:37:35;;;;;;;0.40;0.30;;;15.70;99.90;;;;;;5016137;28;21108;-78
2021/08/30 11:40:07;;;;;;;0.40;0.20;;;15.80;99.90;;;;;;5018120;28;20391;-79
2021/08/30 11:42:34;;;;;;;0.40;0.20;;;15.70;99.90;;;;;;5017370;28;20433;-78
2021/08/30 11:45:02;;;;;;;0.40;0.30;;;15.70;99.90;;;;;;5013823;28;20411;-78
2021/08/30 11:47:28;;;;;;;0.40;0.30;;;15.70;99.90;;;;;;5016922;28;20449;-78
2021/08/30 11:49:59;;;;;;;0.40;0.20;;;15.80;99.90;;;;;;5017827;28;20386;-78
2021/08/30 11:52:29;;;;;;;0.40;0.30;;;15.80;99.90;;;;;;5016767;28;20388;-78
2021/08/30 11:55:02;;;;;;;0.40;0.30;;;15.90;99.90;;;;;;5015861;28;20387;-78
2021/08/30 11:57:42;;;;;;;0.40;0.30;;;15.90;99.90;;;;;;5016767;28;20906;-78
2021/08/30 12:00:10;;;;;;;0.40;0.30;;;16.10;99.90;;;;;;5018033;28;20437;-78
2021/08/30 12:02:36;;;;;;;0.40;0.20;;;16.20;99.90;;;;;;5017422;28;20494;-78
2021/08/30 12:05:04;;;;;;;0.40;0.30;;;16.20;99.90;;;;;;5014621;28;20390;-78
2021/08/30 12:07:37;;;;;;;0.40;0.20;;;16.30;99.90;;;;;;5017517;28;20557;-78
2021/08/30 12:10:07;;;;;;;0.40;0.30;;;16.40;99.90;;;;;;5020806;28;20756;-78
2021/08/30 12:12:37;;;;;;;0.40;0.20;;;16.60;99.90;;;;;;5019941;28;20405;-77
2021/08/30 12:15:14;;;;;;;0.40;0.20;;;16.80;99.90;;;;;;5017333;28;20517;-77
2021/08/30 12:17:44;;;;;;;0.40;0.20;;;17.10;99.90;;;;;;5020211;28;20429;-77
2021/08/30 12:20:13;;;;;;;0.40;0.20;;;17.30;99.90;;;;;;5021556;28;20449;-76
2021/08/30 12:22:57;;;;;;;0.40;0.20;;;17.40;99.90;;;;;;5019623;28;20406;-78
2021/08/30 12:25:29;;;;;;;0.40;0.30;;;17.20;99.90;;;;;;5017078;28;20395;-77
2021/08/30 12:27:56;;;;;;;0.40;0.30;;;16.90;99.90;;;;;;5020821;28;20417;-77
2021/08/30 12:30:25;;;;;;;0.40;0.20;;;16.60;99.90;;;;;;5020425;28;20398;-76
2021/08/30 12:32:56;;;;;;;0.40;0.30;;;16.40;99.90;;;;;;5019989;28;20391;-76
2021/08/30 12:35:28;;;;;;;0.40;0.28;;;16.30;99.90;;;;;;5017476;28;20811;-77
2021/08/30 12:38:06;;;;;;;0.40;0.20;;;16.20;99.90;;;;;;5011782;28;20406;-78
2021/08/30 12:40:33;;;;;;;0.40;0.20;;;16.20;99.90;;;;;;5012017;28;20931;-77
2021/08/30 12:43:00;;;;;;;0.40;0.30;;;16.20;99.90;;;;;;5014588;28;20998;-77
2021/08/30 12:45:26;;;;;;;0.40;0.30;;;16.30;99.90;;;;;;5014183;28;20409;-78
2021/08/30 12:47:59;;;;;;;0.40;0.20;;;16.30;99.90;;;;;;5020155;28;20529;-78
2021/08/30 12:50:28;;;;;;;0.40;0.20;;;16.30;99.90;;;;;;5020602;28;20553;-78
2021/08/30 12:52:54;;;;;;;0.40;0.20;;;16.30;99.90;;;;;;5019949;28;20399;-77
2021/08/30 12:55:21;;;;;;;0.40;0.30;;;16.30;99.90;;;;;;5016633;28;20913;-79
2021/08/30 12:57:46;;;;;;;0.40;0.30;;;16.40;99.90;;;;;;5018620;28;21000;-76